sensor_id;sensor_type;location;lat;lon;timestamp;P1;durP1;ratioP1;P2;durP2;ratioP2
35795;SDS011;21916;52.428;13.302;2023-03-01T00:01:48;29.10;;;15.75;;
35795;SDS011;21916;52.428;13.302;2023-03-01T00:04:14;27.13;;;15.02;;
35795;SDS011;21916;52.428;13.302;2023-03-01T00:06:40;25.38;;;14.15;;
35795;SDS011;21916;52.428;13.302;2023-03-01T00:09:11;28.92;;;14.98;;
35795;SDS011;21916;52.428;13.302;2023-03-01T00:11:38;29.38;;;15.02;;
35795;SDS011;21916;52.428;13.302;2023-03-01T00:14:04;33.38;;;15.27;;
35795;SDS011;21916;52.428;13.302;2023-03-01T00:16:34;29.95;;;14.82;;
35795;SDS011;21916;52.428;13.302;2023-03-01T00:19:06;26.52;;;14.70;;
35795;SDS011;21916;52.428;13.302;2023-03-01T00:21:35;34.28;;;13.60;;
35795;SDS011;21916;52.428;13.302;2023-03-01T00:24:01;30.33;;;15.10;;
35795;SDS011;21916;52.428;13.302;2023-03-01T00:26:27;33.70;;;15.48;;
35795;SDS011;21916;52.428;13.302;2023-03-01T00:28:53;31.65;;;15.23;;
35795;SDS011;21916;52.428;13.302;2023-03-01T00:31:24;32.33;;;13.77;;
35795;SDS011;21916;52.428;13.302;2023-03-01T00:33:53;28.02;;;13.82;;
35795;SDS011;21916;52.428;13.302;2023-03-01T00:36:24;27.23;;;14.32;;
35795;SDS011;21916;52.428;13.302;2023-03-01T00:38:51;29.63;;;14.25;;
35795;SDS011;21916;52.428;13.302;2023-03-01T00:41:18;31.05;;;15.45;;
35795;SDS011;21916;52.428;13.302;2023-03-01T00:43:48;25.27;;;15.43;;
35795;SDS011;21916;52.428;13.302;2023-03-01T00:46:16;22.88;;;13.40;;
35795;SDS011;21916;52.428;13.302;2023-03-01T00:48:46;28.60;;;14.32;;
35795;SDS011;21916;52.428;13.302;2023-03-01T00:51:13;24.45;;;14.05;;
35795;SDS011;21916;52.428;13.302;2023-03-01T00:53:42;26.90;;;13.52;;
35795;SDS011;21916;52.428;13.302;2023-03-01T00:56:09;30.00;;;13.63;;
35795;SDS011;21916;52.428;13.302;2023-03-01T00:58:36;25.23;;;13.43;;
35795;SDS011;21916;52.428;13.302;2023-03-01T01:01:10;29.90;;;14.75;;
35795;SDS011;21916;52.428;13.302;2023-03-01T01:03:44;26.67;;;13.48;;
35795;SDS011;21916;52.428;13.302;2023-03-01T01:06:14;32.92;;;15.75;;
35795;SDS011;21916;52.428;13.302;2023-03-01T01:08:44;22.83;;;12.88;;
35795;SDS011;21916;52.428;13.302;2023-03-01T01:11:10;29.38;;;15.18;;
35795;SDS011;21916;52.428;13.302;2023-03-01T01:13:37;27.85;;;13.00;;
35795;SDS011;21916;52.428;13.302;2023-03-01T01:16:04;27.23;;;14.15;;
35795;SDS011;21916;52.428;13.302;2023-03-01T01:18:30;24.55;;;12.82;;
35795;SDS011;21916;52.428;13.302;2023-03-01T01:20:56;23.80;;;13.00;;
35795;SDS011;21916;52.428;13.302;2023-03-01T01:23:22;27.85;;;13.00;;
35795;SDS011;21916;52.428;13.302;2023-03-01T01:25:48;24.15;;;13.20;;
35795;SDS011;21916;52.428;13.302;2023-03-01T01:28:14;24.60;;;12.95;;
35795;SDS011;21916;52.428;13.302;2023-03-01T01:30:39;23.98;;;12.27;;
35795;SDS011;21916;52.428;13.302;2023-03-01T01:33:05;24.35;;;12.02;;
35795;SDS011;21916;52.428;13.302;2023-03-01T01:35:31;24.25;;;13.20;;
35795;SDS011;21916;52.428;13.302;2023-03-01T01:37:57;27.10;;;13.32;;
35795;SDS011;21916;52.428;13.302;2023-03-01T01:40:23;25.48;;;11.80;;
35795;SDS011;21916;52.428;13.302;2023-03-01T01:42:48;24.08;;;12.52;;
35795;SDS011;21916;52.428;13.302;2023-03-01T01:45:34;26.50;;;13.15;;
35795;SDS011;21916;52.428;13.302;2023-03-01T01:48:05;23.02;;;13.10;;
35795;SDS011;21916;52.428;13.302;2023-03-01T01:50:36;26.38;;;13.73;;
35795;SDS011;21916;52.428;13.302;2023-03-01T01:53:07;24.52;;;13.45;;
35795;SDS011;21916;52.428;13.302;2023-03-01T01:55:42;22.83;;;12.20;;
35795;SDS011;21916;52.428;13.302;2023-03-01T01:58:11;26.17;;;13.73;;
35795;SDS011;21916;52.428;13.302;2023-03-01T02:00:40;30.33;;;14.80;;
35795;SDS011;21916;52.428;13.302;2023-03-01T02:03:08;28.10;;;12.88;;
35795;SDS011;21916;52.428;13.302;2023-03-01T02:05:38;30.13;;;13.73;;
35795;SDS011;21916;52.428;13.302;2023-03-01T02:08:08;29.25;;;15.10;;
35795;SDS011;21916;52.428;13.302;2023-03-01T02:10:37;29.23;;;15.50;;
35795;SDS011;21916;52.428;13.302;2023-03-01T02:13:04;33.20;;;16.25;;
35795;SDS011;21916;52.428;13.302;2023-03-01T02:15:35;31.27;;;16.67;;
35795;SDS011;21916;52.428;13.302;2023-03-01T02:18:02;32.03;;;17.50;;
35795;SDS011;21916;52.428;13.302;2023-03-01T02:20:34;29.90;;;16.73;;
35795;SDS011;21916;52.428;13.302;2023-03-01T02:23:11;30.08;;;17.02;;
35795;SDS011;21916;52.428;13.302;2023-03-01T02:25:54;35.13;;;16.20;;
35795;SDS011;21916;52.428;13.302;2023-03-01T02:28:26;32.17;;;16.75;;
35795;SDS011;21916;52.428;13.302;2023-03-01T02:30:52;28.92;;;15.30;;
35795;SDS011;21916;52.428;13.302;2023-03-01T02:33:38;27.10;;;14.30;;
35795;SDS011;21916;52.428;13.302;2023-03-01T02:36:06;25.05;;;15.00;;
35795;SDS011;21916;52.428;13.302;2023-03-01T02:38:36;32.72;;;14.73;;
35795;SDS011;21916;52.428;13.302;2023-03-01T02:41:02;29.17;;;14.23;;
35795;SDS011;21916;52.428;13.302;2023-03-01T02:43:31;31.20;;;15.50;;
35795;SDS011;21916;52.428;13.302;2023-03-01T02:45:58;30.48;;;13.60;;
35795;SDS011;21916;52.428;13.302;2023-03-01T02:48:43;27.88;;;14.95;;
35795;SDS011;21916;52.428;13.302;2023-03-01T02:51:18;25.80;;;13.57;;
35795;SDS011;21916;52.428;13.302;2023-03-01T02:53:53;27.33;;;13.45;;
35795;SDS011;21916;52.428;13.302;2023-03-01T02:56:33;26.77;;;13.85;;
35795;SDS011;21916;52.428;13.302;2023-03-01T02:59:00;27.90;;;12.98;;
35795;SDS011;21916;52.428;13.302;2023-03-01T03:01:28;27.85;;;12.82;;
35795;SDS011;21916;52.428;13.302;2023-03-01T03:04:07;27.52;;;13.35;;
35795;SDS011;21916;52.428;13.302;2023-03-01T03:06:35;26.17;;;13.55;;
35795;SDS011;21916;52.428;13.302;2023-03-01T03:09:02;27.77;;;14.10;;
35795;SDS011;21916;52.428;13.302;2023-03-01T03:11:29;27.83;;;13.57;;
35795;SDS011;21916;52.428;13.302;2023-03-01T03:13:56;23.67;;;12.85;;
35795;SDS011;21916;52.428;13.302;2023-03-01T03:16:23;29.30;;;13.50;;
35795;SDS011;21916;52.428;13.302;2023-03-01T03:18:50;25.67;;;14.05;;
35795;SDS011;21916;52.428;13.302;2023-03-01T03:21:16;26.83;;;13.32;;
35795;SDS011;21916;52.428;13.302;2023-03-01T03:23:42;27.90;;;14.40;;
35795;SDS011;21916;52.428;13.302;2023-03-01T03:26:08;25.85;;;13.55;;
35795;SDS011;21916;52.428;13.302;2023-03-01T03:28:40;29.67;;;14.23;;
35795;SDS011;21916;52.428;13.302;2023-03-01T03:31:07;26.48;;;13.32;;
35795;SDS011;21916;52.428;13.302;2023-03-01T03:33:33;24.88;;;13.13;;
35795;SDS011;21916;52.428;13.302;2023-03-01T03:35:59;26.45;;;13.88;;
35795;SDS011;21916;52.428;13.302;2023-03-01T03:38:25;26.45;;;13.52;;
35795;SDS011;21916;52.428;13.302;2023-03-01T03:40:54;28.08;;;13.43;;
35795;SDS011;21916;52.428;13.302;2023-03-01T03:43:30;27.15;;;15.23;;
35795;SDS011;21916;52.428;13.302;2023-03-01T03:45:58;27.60;;;14.07;;
35795;SDS011;21916;52.428;13.302;2023-03-01T03:48:24;23.98;;;13.70;;
35795;SDS011;21916;52.428;13.302;2023-03-01T03:50:51;27.60;;;13.98;;
35795;SDS011;21916;52.428;13.302;2023-03-01T03:53:19;27.23;;;13.65;;
35795;SDS011;21916;52.428;13.302;2023-03-01T03:55:46;28.83;;;13.90;;
35795;SDS011;21916;52.428;13.302;2023-03-01T03:58:14;31.85;;;14.48;;
35795;SDS011;21916;52.428;13.302;2023-03-01T04:00:42;23.77;;;13.13;;
35795;SDS011;21916;52.428;13.302;2023-03-01T04:03:10;27.73;;;14.20;;
35795;SDS011;21916;52.428;13.302;2023-03-01T04:05:39;24.83;;;14.73;;
35795;SDS011;21916;52.428;13.302;2023-03-01T04:08:05;25.05;;;13.52;;
35795;SDS011;21916;52.428;13.302;2023-03-01T04:10:33;26.83;;;13.23;;
35795;SDS011;21916;52.428;13.302;2023-03-01T04:13:02;25.05;;;12.68;;
35795;SDS011;21916;52.428;13.302;2023-03-01T04:15:29;26.55;;;13.52;;
35795;SDS011;21916;52.428;13.302;2023-03-01T04:17:56;26.70;;;12.93;;
35795;SDS011;21916;52.428;13.302;2023-03-01T04:20:25;24.73;;;12.82;;
35795;SDS011;21916;52.428;13.302;2023-03-01T04:22:57;22.95;;;12.18;;
35795;SDS011;21916;52.428;13.302;2023-03-01T04:25:33;29.77;;;14.73;;
35795;SDS011;21916;52.428;13.302;2023-03-01T04:28:02;29.13;;;14.23;;
35795;SDS011;21916;52.428;13.302;2023-03-01T04:30:28;36.00;;;18.20;;
35795;SDS011;21916;52.428;13.302;2023-03-01T04:32:54;40.90;;;18.48;;
35795;SDS011;21916;52.428;13.302;2023-03-01T04:35:19;43.63;;;20.80;;
35795;SDS011;21916;52.428;13.302;2023-03-01T04:37:46;42.22;;;19.10;;
35795;SDS011;21916;52.428;13.302;2023-03-01T04:40:12;35.08;;;18.33;;
35795;SDS011;21916;52.428;13.302;2023-03-01T04:42:42;36.40;;;16.77;;
35795;SDS011;21916;52.428;13.302;2023-03-01T04:45:08;31.25;;;16.40;;
35795;SDS011;21916;52.428;13.302;2023-03-01T04:47:41;31.23;;;15.50;;
35795;SDS011;21916;52.428;13.302;2023-03-01T04:50:13;27.23;;;14.95;;
35795;SDS011;21916;52.428;13.302;2023-03-01T04:52:41;30.58;;;15.45;;
35795;SDS011;21916;52.428;13.302;2023-03-01T04:55:09;28.15;;;14.23;;
35795;SDS011;21916;52.428;13.302;2023-03-01T04:57:35;29.75;;;13.18;;
35795;SDS011;21916;52.428;13.302;2023-03-01T05:00:01;30.98;;;14.15;;
35795;SDS011;21916;52.428;13.302;2023-03-01T05:02:59;26.55;;;14.50;;
35795;SDS011;21916;52.428;13.302;2023-03-01T05:05:27;28.00;;;14.60;;
35795;SDS011;21916;52.428;13.302;2023-03-01T05:07:59;31.52;;;15.27;;
35795;SDS011;21916;52.428;13.302;2023-03-01T05:10:27;30.40;;;15.00;;
35795;SDS011;21916;52.428;13.302;2023-03-01T05:12:55;29.10;;;15.50;;
35795;SDS011;21916;52.428;13.302;2023-03-01T05:15:22;27.65;;;15.50;;
35795;SDS011;21916;52.428;13.302;2023-03-01T05:17:52;25.83;;;15.77;;
35795;SDS011;21916;52.428;13.302;2023-03-01T05:20:20;33.30;;;14.35;;
35795;SDS011;21916;52.428;13.302;2023-03-01T05:22:49;25.08;;;13.50;;
35795;SDS011;21916;52.428;13.302;2023-03-01T05:25:16;25.60;;;13.70;;
35795;SDS011;21916;52.428;13.302;2023-03-01T05:27:43;28.98;;;13.57;;
35795;SDS011;21916;52.428;13.302;2023-03-01T05:30:09;25.95;;;14.13;;
35795;SDS011;21916;52.428;13.302;2023-03-01T05:32:42;26.80;;;13.13;;
35795;SDS011;21916;52.428;13.302;2023-03-01T05:35:14;24.35;;;13.50;;
35795;SDS011;21916;52.428;13.302;2023-03-01T05:37:45;24.33;;;12.15;;
35795;SDS011;21916;52.428;13.302;2023-03-01T05:40:13;33.58;;;13.75;;
35795;SDS011;21916;52.428;13.302;2023-03-01T05:42:48;23.98;;;12.65;;
35795;SDS011;21916;52.428;13.302;2023-03-01T05:45:17;26.88;;;12.82;;
35795;SDS011;21916;52.428;13.302;2023-03-01T05:47:44;26.60;;;13.20;;
35795;SDS011;21916;52.428;13.302;2023-03-01T05:50:14;21.98;;;12.13;;
35795;SDS011;21916;52.428;13.302;2023-03-01T05:53:08;30.02;;;13.60;;
35795;SDS011;21916;52.428;13.302;2023-03-01T05:55:34;23.73;;;12.48;;
35795;SDS011;21916;52.428;13.302;2023-03-01T05:58:02;28.25;;;12.48;;
35795;SDS011;21916;52.428;13.302;2023-03-01T06:00:30;28.15;;;13.13;;
35795;SDS011;21916;52.428;13.302;2023-03-01T06:02:56;26.90;;;13.25;;
35795;SDS011;21916;52.428;13.302;2023-03-01T06:05:23;23.60;;;12.70;;
35795;SDS011;21916;52.428;13.302;2023-03-01T06:07:50;24.33;;;12.85;;
35795;SDS011;21916;52.428;13.302;2023-03-01T06:10:16;26.48;;;13.05;;
35795;SDS011;21916;52.428;13.302;2023-03-01T06:12:44;27.88;;;12.75;;
35795;SDS011;21916;52.428;13.302;2023-03-01T06:15:13;26.60;;;13.73;;
35795;SDS011;21916;52.428;13.302;2023-03-01T06:17:41;28.45;;;13.55;;
35795;SDS011;21916;52.428;13.302;2023-03-01T06:22:44;23.48;;;12.48;;
35795;SDS011;21916;52.428;13.302;2023-03-01T06:25:12;26.08;;;12.30;;
35795;SDS011;21916;52.428;13.302;2023-03-01T06:27:40;22.00;;;12.75;;
35795;SDS011;21916;52.428;13.302;2023-03-01T06:30:07;30.52;;;14.20;;
35795;SDS011;21916;52.428;13.302;2023-03-01T06:32:35;24.92;;;13.00;;
35795;SDS011;21916;52.428;13.302;2023-03-01T06:35:03;23.08;;;13.18;;
35795;SDS011;21916;52.428;13.302;2023-03-01T06:37:29;29.50;;;12.55;;
35795;SDS011;21916;52.428;13.302;2023-03-01T06:39:55;25.20;;;12.50;;
35795;SDS011;21916;52.428;13.302;2023-03-01T06:42:21;25.48;;;12.70;;
35795;SDS011;21916;52.428;13.302;2023-03-01T06:44:47;28.58;;;13.13;;
35795;SDS011;21916;52.428;13.302;2023-03-01T06:47:13;25.35;;;12.60;;
35795;SDS011;21916;52.428;13.302;2023-03-01T06:49:39;24.52;;;13.35;;
35795;SDS011;21916;52.428;13.302;2023-03-01T06:52:05;23.55;;;13.30;;
35795;SDS011;21916;52.428;13.302;2023-03-01T06:54:31;26.58;;;14.05;;
35795;SDS011;21916;52.428;13.302;2023-03-01T06:56:57;24.98;;;12.98;;
35795;SDS011;21916;52.428;13.302;2023-03-01T06:59:23;24.85;;;13.65;;
35795;SDS011;21916;52.428;13.302;2023-03-01T07:01:49;27.95;;;13.57;;
35795;SDS011;21916;52.428;13.302;2023-03-01T07:04:15;22.52;;;13.07;;
35795;SDS011;21916;52.428;13.302;2023-03-01T07:06:41;24.92;;;13.07;;
35795;SDS011;21916;52.428;13.302;2023-03-01T07:09:07;23.88;;;12.75;;
35795;SDS011;21916;52.428;13.302;2023-03-01T07:11:33;22.75;;;13.35;;
35795;SDS011;21916;52.428;13.302;2023-03-01T07:14:00;25.20;;;13.02;;
35795;SDS011;21916;52.428;13.302;2023-03-01T07:16:26;22.60;;;12.88;;
35795;SDS011;21916;52.428;13.302;2023-03-01T07:18:52;22.65;;;13.68;;
35795;SDS011;21916;52.428;13.302;2023-03-01T07:21:18;22.75;;;13.93;;
35795;SDS011;21916;52.428;13.302;2023-03-01T07:23:46;28.50;;;14.05;;
35795;SDS011;21916;52.428;13.302;2023-03-01T07:26:13;23.65;;;13.15;;
35795;SDS011;21916;52.428;13.302;2023-03-01T07:28:38;30.20;;;16.00;;
35795;SDS011;21916;52.428;13.302;2023-03-01T07:31:05;27.55;;;15.20;;
35795;SDS011;21916;52.428;13.302;2023-03-01T07:33:31;28.55;;;15.50;;
35795;SDS011;21916;52.428;13.302;2023-03-01T07:35:58;26.27;;;16.52;;
35795;SDS011;21916;52.428;13.302;2023-03-01T07:38:26;26.38;;;16.42;;
35795;SDS011;21916;52.428;13.302;2023-03-01T07:40:53;32.00;;;16.80;;
35795;SDS011;21916;52.428;13.302;2023-03-01T07:43:19;28.90;;;16.85;;
35795;SDS011;21916;52.428;13.302;2023-03-01T07:45:46;26.20;;;16.20;;
35795;SDS011;21916;52.428;13.302;2023-03-01T07:48:12;27.73;;;15.98;;
35795;SDS011;21916;52.428;13.302;2023-03-01T07:50:37;30.63;;;16.77;;
35795;SDS011;21916;52.428;13.302;2023-03-01T07:53:03;28.25;;;15.40;;
35795;SDS011;21916;52.428;13.302;2023-03-01T07:55:30;25.63;;;15.40;;
35795;SDS011;21916;52.428;13.302;2023-03-01T07:57:55;27.77;;;14.20;;
35795;SDS011;21916;52.428;13.302;2023-03-01T08:00:21;27.17;;;15.23;;
35795;SDS011;21916;52.428;13.302;2023-03-01T08:02:47;23.95;;;16.27;;
35795;SDS011;21916;52.428;13.302;2023-03-01T08:05:13;26.55;;;15.52;;
35795;SDS011;21916;52.428;13.302;2023-03-01T08:07:39;23.30;;;14.05;;
35795;SDS011;21916;52.428;13.302;2023-03-01T08:10:05;21.20;;;13.63;;
35795;SDS011;21916;52.428;13.302;2023-03-01T08:12:31;26.10;;;14.32;;
35795;SDS011;21916;52.428;13.302;2023-03-01T08:14:57;24.88;;;13.85;;
35795;SDS011;21916;52.428;13.302;2023-03-01T08:17:23;21.92;;;13.43;;
35795;SDS011;21916;52.428;13.302;2023-03-01T08:19:49;20.10;;;12.35;;
35795;SDS011;21916;52.428;13.302;2023-03-01T08:22:15;20.67;;;13.27;;
35795;SDS011;21916;52.428;13.302;2023-03-01T08:24:41;23.05;;;14.15;;
35795;SDS011;21916;52.428;13.302;2023-03-01T08:27:07;27.30;;;14.63;;
35795;SDS011;21916;52.428;13.302;2023-03-01T08:29:34;24.83;;;14.20;;
35795;SDS011;21916;52.428;13.302;2023-03-01T08:32:00;24.58;;;14.05;;
35795;SDS011;21916;52.428;13.302;2023-03-01T08:34:26;20.80;;;12.88;;
35795;SDS011;21916;52.428;13.302;2023-03-01T08:36:52;21.63;;;13.65;;
35795;SDS011;21916;52.428;13.302;2023-03-01T08:39:18;20.17;;;13.25;;
35795;SDS011;21916;52.428;13.302;2023-03-01T08:41:46;16.70;;;9.30;;
35795;SDS011;21916;52.428;13.302;2023-03-01T08:44:12;17.63;;;11.30;;
35795;SDS011;21916;52.428;13.302;2023-03-01T08:46:42;18.23;;;9.82;;
35795;SDS011;21916;52.428;13.302;2023-03-01T08:49:12;12.75;;;8.52;;
35795;SDS011;21916;52.428;13.302;2023-03-01T08:51:40;15.32;;;8.88;;
35795;SDS011;21916;52.428;13.302;2023-03-01T08:54:09;13.95;;;8.25;;
35795;SDS011;21916;52.428;13.302;2023-03-01T08:56:38;11.98;;;7.93;;
35795;SDS011;21916;52.428;13.302;2023-03-01T08:59:04;12.90;;;8.25;;
35795;SDS011;21916;52.428;13.302;2023-03-01T09:01:30;17.23;;;9.10;;
35795;SDS011;21916;52.428;13.302;2023-03-01T09:03:56;12.27;;;6.40;;
35795;SDS011;21916;52.428;13.302;2023-03-01T09:06:23;13.48;;;7.75;;
35795;SDS011;21916;52.428;13.302;2023-03-01T09:08:49;15.85;;;8.27;;
35795;SDS011;21916;52.428;13.302;2023-03-01T09:11:17;13.30;;;6.60;;
35795;SDS011;21916;52.428;13.302;2023-03-01T09:13:45;11.80;;;6.88;;
35795;SDS011;21916;52.428;13.302;2023-03-01T09:16:12;11.05;;;6.55;;
35795;SDS011;21916;52.428;13.302;2023-03-01T09:18:40;12.57;;;6.40;;
35795;SDS011;21916;52.428;13.302;2023-03-01T09:21:08;9.30;;;6.00;;
35795;SDS011;21916;52.428;13.302;2023-03-01T09:23:37;12.15;;;7.00;;
35795;SDS011;21916;52.428;13.302;2023-03-01T09:26:06;12.70;;;6.38;;
35795;SDS011;21916;52.428;13.302;2023-03-01T09:28:34;12.40;;;6.13;;
35795;SDS011;21916;52.428;13.302;2023-03-01T09:31:01;12.68;;;6.03;;
35795;SDS011;21916;52.428;13.302;2023-03-01T09:33:28;9.75;;;5.60;;
35795;SDS011;21916;52.428;13.302;2023-03-01T09:35:59;11.27;;;5.63;;
35795;SDS011;21916;52.428;13.302;2023-03-01T09:38:27;9.90;;;5.40;;
35795;SDS011;21916;52.428;13.302;2023-03-01T09:40:53;9.55;;;6.10;;
35795;SDS011;21916;52.428;13.302;2023-03-01T09:45:52;11.30;;;5.88;;
35795;SDS011;21916;52.428;13.302;2023-03-01T09:48:21;10.65;;;5.10;;
35795;SDS011;21916;52.428;13.302;2023-03-01T09:50:51;8.68;;;6.00;;
35795;SDS011;21916;52.428;13.302;2023-03-01T09:53:26;11.38;;;5.93;;
35795;SDS011;21916;52.428;13.302;2023-03-01T09:56:05;10.57;;;5.45;;
35795;SDS011;21916;52.428;13.302;2023-03-01T09:58:53;7.10;;;4.75;;
35795;SDS011;21916;52.428;13.302;2023-03-01T10:06:51;11.05;;;5.95;;
35795;SDS011;21916;52.428;13.302;2023-03-01T10:09:28;10.88;;;7.13;;
35795;SDS011;21916;52.428;13.302;2023-03-01T10:11:58;9.65;;;5.93;;
35795;SDS011;21916;52.428;13.302;2023-03-01T10:22:47;12.15;;;6.05;;
35795;SDS011;21916;52.428;13.302;2023-03-01T10:25:21;13.38;;;5.82;;
35795;SDS011;21916;52.428;13.302;2023-03-01T10:27:53;10.00;;;6.07;;
35795;SDS011;21916;52.428;13.302;2023-03-01T10:30:35;12.50;;;5.50;;
35795;SDS011;21916;52.428;13.302;2023-03-01T10:33:15;14.90;;;5.72;;
35795;SDS011;21916;52.428;13.302;2023-03-01T10:35:47;10.75;;;6.50;;
35795;SDS011;21916;52.428;13.302;2023-03-01T10:38:14;12.80;;;5.65;;
35795;SDS011;21916;52.428;13.302;2023-03-01T10:43:53;10.48;;;5.20;;
35795;SDS011;21916;52.428;13.302;2023-03-01T10:46:36;9.35;;;5.20;;
35795;SDS011;21916;52.428;13.302;2023-03-01T10:49:16;6.75;;;4.63;;
35795;SDS011;21916;52.428;13.302;2023-03-01T10:51:47;12.38;;;5.38;;
35795;SDS011;21916;52.428;13.302;2023-03-01T10:56:50;7.75;;;4.80;;
35795;SDS011;21916;52.428;13.302;2023-03-01T10:59:21;7.10;;;4.97;;
35795;SDS011;21916;52.428;13.302;2023-03-01T11:01:49;9.23;;;5.03;;
35795;SDS011;21916;52.428;13.302;2023-03-01T11:07:26;11.75;;;5.25;;
35795;SDS011;21916;52.428;13.302;2023-03-01T11:09:52;8.38;;;4.63;;
35795;SDS011;21916;52.428;13.302;2023-03-01T11:12:17;9.75;;;4.50;;
35795;SDS011;21916;52.428;13.302;2023-03-01T11:14:46;10.45;;;4.75;;
35795;SDS011;21916;52.428;13.302;2023-03-01T11:22:45;7.75;;;4.85;;
35795;SDS011;21916;52.428;13.302;2023-03-01T11:25:20;8.27;;;5.05;;
35795;SDS011;21916;52.428;13.302;2023-03-01T11:27:50;8.63;;;4.78;;
35795;SDS011;21916;52.428;13.302;2023-03-01T11:32:48;9.35;;;4.53;;
35795;SDS011;21916;52.428;13.302;2023-03-01T11:35:23;8.77;;;4.50;;
35795;SDS011;21916;52.428;13.302;2023-03-01T11:46:37;9.18;;;4.18;;
35795;SDS011;21916;52.428;13.302;2023-03-01T12:01:17;6.22;;;4.50;;
35795;SDS011;21916;52.428;13.302;2023-03-01T12:20:02;8.18;;;5.25;;
35795;SDS011;21916;52.428;13.302;2023-03-01T12:28:42;9.55;;;4.95;;
35795;SDS011;21916;52.428;13.302;2023-03-01T12:32:03;8.32;;;4.70;;
35795;SDS011;21916;52.428;13.302;2023-03-01T12:42:59;8.80;;;4.35;;
35795;SDS011;21916;52.428;13.302;2023-03-01T12:51:23;8.60;;;4.10;;
35795;SDS011;21916;52.428;13.302;2023-03-01T12:53:53;6.85;;;4.10;;
35795;SDS011;21916;52.428;13.302;2023-03-01T12:56:22;7.07;;;4.20;;
35795;SDS011;21916;52.428;13.302;2023-03-01T12:59:01;5.72;;;3.33;;
35795;SDS011;21916;52.428;13.302;2023-03-01T13:07:32;4.78;;;3.40;;
35795;SDS011;21916;52.428;13.302;2023-03-01T13:18:11;10.00;;;3.53;;
35795;SDS011;21916;52.428;13.302;2023-03-01T13:20:56;6.72;;;2.97;;
35795;SDS011;21916;52.428;13.302;2023-03-01T13:23:26;5.88;;;3.17;;
35795;SDS011;21916;52.428;13.302;2023-03-01T13:33:46;5.82;;;3.90;;
35795;SDS011;21916;52.428;13.302;2023-03-01T13:54:53;7.65;;;4.30;;
35795;SDS011;21916;52.428;13.302;2023-03-01T13:57:21;7.82;;;3.38;;
35795;SDS011;21916;52.428;13.302;2023-03-01T13:59:53;4.18;;;2.97;;
35795;SDS011;21916;52.428;13.302;2023-03-01T14:02:19;4.35;;;2.90;;
35795;SDS011;21916;52.428;13.302;2023-03-01T14:04:46;7.20;;;3.50;;
35795;SDS011;21916;52.428;13.302;2023-03-01T14:07:23;5.13;;;3.13;;
35795;SDS011;21916;52.428;13.302;2023-03-01T14:09:51;5.57;;;3.20;;
35795;SDS011;21916;52.428;13.302;2023-03-01T14:14:56;8.60;;;3.42;;
35795;SDS011;21916;52.428;13.302;2023-03-01T14:20:27;4.63;;;3.35;;
35795;SDS011;21916;52.428;13.302;2023-03-01T14:22:57;6.45;;;3.38;;
35795;SDS011;21916;52.428;13.302;2023-03-01T14:25:31;9.43;;;2.85;;
35795;SDS011;21916;52.428;13.302;2023-03-01T14:28:04;6.28;;;3.65;;
35795;SDS011;21916;52.428;13.302;2023-03-01T14:30:51;4.35;;;3.22;;
35795;SDS011;21916;52.428;13.302;2023-03-01T14:36:00;5.88;;;3.22;;
35795;SDS011;21916;52.428;13.302;2023-03-01T14:41:06;6.10;;;3.20;;
35795;SDS011;21916;52.428;13.302;2023-03-01T14:43:34;5.47;;;2.92;;
35795;SDS011;21916;52.428;13.302;2023-03-01T14:46:02;8.50;;;3.50;;
35795;SDS011;21916;52.428;13.302;2023-03-01T14:48:29;5.65;;;2.72;;
35795;SDS011;21916;52.428;13.302;2023-03-01T14:50:56;5.65;;;3.45;;
35795;SDS011;21916;52.428;13.302;2023-03-01T14:53:26;7.88;;;2.75;;
35795;SDS011;21916;52.428;13.302;2023-03-01T14:55:55;6.72;;;2.80;;
35795;SDS011;21916;52.428;13.302;2023-03-01T14:58:25;5.22;;;2.45;;
35795;SDS011;21916;52.428;13.302;2023-03-01T15:00:52;4.25;;;2.72;;
35795;SDS011;21916;52.428;13.302;2023-03-01T15:05:58;5.63;;;2.70;;
35795;SDS011;21916;52.428;13.302;2023-03-01T15:08:27;3.42;;;2.42;;
35795;SDS011;21916;52.428;13.302;2023-03-01T15:11:03;5.40;;;2.42;;
35795;SDS011;21916;52.428;13.302;2023-03-01T15:13:33;4.93;;;2.83;;
35795;SDS011;21916;52.428;13.302;2023-03-01T15:16:01;7.65;;;3.25;;
35795;SDS011;21916;52.428;13.302;2023-03-01T15:18:30;6.25;;;2.72;;
35795;SDS011;21916;52.428;13.302;2023-03-01T15:24:05;5.75;;;2.65;;
35795;SDS011;21916;52.428;13.302;2023-03-01T15:26:43;4.07;;;2.72;;
35795;SDS011;21916;52.428;13.302;2023-03-01T15:29:20;9.38;;;3.38;;
35795;SDS011;21916;52.428;13.302;2023-03-01T15:31:55;4.65;;;3.00;;
35795;SDS011;21916;52.428;13.302;2023-03-01T15:34:27;5.85;;;3.03;;
35795;SDS011;21916;52.428;13.302;2023-03-01T15:36:58;5.90;;;2.63;;
35795;SDS011;21916;52.428;13.302;2023-03-01T15:39:37;5.18;;;3.25;;
35795;SDS011;21916;52.428;13.302;2023-03-01T15:42:12;7.55;;;3.30;;
35795;SDS011;21916;52.428;13.302;2023-03-01T15:45:19;4.22;;;2.70;;
35795;SDS011;21916;52.428;13.302;2023-03-01T15:47:48;5.63;;;3.00;;
35795;SDS011;21916;52.428;13.302;2023-03-01T15:50:27;5.28;;;2.83;;
35795;SDS011;21916;52.428;13.302;2023-03-01T15:52:55;5.20;;;2.78;;
35795;SDS011;21916;52.428;13.302;2023-03-01T15:55:28;4.15;;;2.03;;
35795;SDS011;21916;52.428;13.302;2023-03-01T16:00:41;4.07;;;2.80;;
35795;SDS011;21916;52.428;13.302;2023-03-01T16:03:08;6.10;;;3.03;;
35795;SDS011;21916;52.428;13.302;2023-03-01T16:05:37;6.47;;;2.75;;
35795;SDS011;21916;52.428;13.302;2023-03-01T16:08:04;5.38;;;2.83;;
35795;SDS011;21916;52.428;13.302;2023-03-01T16:10:31;7.22;;;2.80;;
35795;SDS011;21916;52.428;13.302;2023-03-01T16:12:58;7.18;;;2.85;;
35795;SDS011;21916;52.428;13.302;2023-03-01T16:17:55;3.63;;;2.70;;
35795;SDS011;21916;52.428;13.302;2023-03-01T16:20:23;7.28;;;2.47;;
35795;SDS011;21916;52.428;13.302;2023-03-01T16:22:50;5.53;;;2.90;;
35795;SDS011;21916;52.428;13.302;2023-03-01T16:25:17;4.28;;;2.40;;
35795;SDS011;21916;52.428;13.302;2023-03-01T16:27:45;5.90;;;2.63;;
35795;SDS011;21916;52.428;13.302;2023-03-01T16:30:13;8.15;;;2.70;;
35795;SDS011;21916;52.428;13.302;2023-03-01T16:32:43;5.70;;;2.90;;
35795;SDS011;21916;52.428;13.302;2023-03-01T16:35:10;4.78;;;3.15;;
35795;SDS011;21916;52.428;13.302;2023-03-01T16:37:37;6.57;;;2.78;;
35795;SDS011;21916;52.428;13.302;2023-03-01T16:40:04;12.40;;;3.25;;
35795;SDS011;21916;52.428;13.302;2023-03-01T16:42:40;9.23;;;3.10;;
35795;SDS011;21916;52.428;13.302;2023-03-01T16:45:07;6.30;;;3.20;;
35795;SDS011;21916;52.428;13.302;2023-03-01T16:47:34;9.27;;;3.17;;
35795;SDS011;21916;52.428;13.302;2023-03-01T16:50:00;9.38;;;3.88;;
35795;SDS011;21916;52.428;13.302;2023-03-01T16:52:27;6.55;;;3.40;;
35795;SDS011;21916;52.428;13.302;2023-03-01T16:54:53;6.82;;;3.72;;
35795;SDS011;21916;52.428;13.302;2023-03-01T16:57:19;5.78;;;2.90;;
35795;SDS011;21916;52.428;13.302;2023-03-01T16:59:50;4.55;;;2.80;;
35795;SDS011;21916;52.428;13.302;2023-03-01T17:02:18;6.13;;;3.45;;
35795;SDS011;21916;52.428;13.302;2023-03-01T17:04:45;9.00;;;3.75;;
35795;SDS011;21916;52.428;13.302;2023-03-01T17:07:16;6.15;;;3.03;;